createdAt,value
2023-03-31T00:02:13.951Z,1.40
2023-03-31T00:04:46.244Z,2.28
2023-03-31T00:07:14.452Z,1.70
2023-03-31T00:09:46.034Z,2.42
2023-03-31T00:12:16.670Z,1.90
2023-03-31T00:14:43.785Z,2.38
2023-03-31T00:17:11.362Z,2.22
2023-03-31T00:19:38.085Z,2.05
2023-03-31T00:22:05.282Z,1.95
2023-03-31T00:24:32.880Z,1.90
2023-03-31T00:27:01.044Z,2.20
2023-03-31T00:29:27.960Z,2.03
2023-03-31T00:31:55.442Z,2.10
2023-03-31T00:34:22.636Z,2.70
2023-03-31T00:36:49.201Z,1.70
2023-03-31T00:39:18.636Z,2.10
2023-03-31T00:41:45.702Z,1.83
2023-03-31T00:44:18.647Z,1.92
2023-03-31T00:46:57.123Z,2.60
2023-03-31T00:49:44.998Z,2.10
2023-03-31T00:52:15.408Z,1.98
2023-03-31T00:54:44.824Z,2.00
2023-03-31T00:57:11.856Z,2.42
2023-03-31T00:59:41.385Z,1.80
2023-03-31T01:02:08.675Z,2.33
2023-03-31T01:04:39.436Z,1.77
2023-03-31T01:07:16.771Z,1.77
2023-03-31T01:09:47.089Z,2.70
2023-03-31T01:12:16.135Z,1.77
2023-03-31T01:14:43.531Z,2.30
2023-03-31T01:17:10.207Z,2.22
2023-03-31T01:19:46.346Z,1.73
2023-03-31T01:23:06.935Z,1.70
2023-03-31T01:25:52.527Z,1.80
2023-03-31T01:28:31.113Z,1.95
2023-03-31T01:31:15.360Z,2.58
2023-03-31T01:33:57.058Z,1.73
2023-03-31T01:36:32.432Z,2.05
2023-03-31T01:39:25.645Z,46.10
2023-03-31T01:41:54.843Z,2.30
2023-03-31T01:44:43.657Z,2.15
2023-03-31T01:47:23.272Z,4.60
2023-03-31T01:49:58.147Z,2.25
2023-03-31T01:52:31.619Z,4.07
2023-03-31T01:55:11.407Z,9.70
2023-03-31T01:57:47.897Z,100.93
2023-03-31T02:00:16.428Z,149.30
2023-03-31T02:02:50.323Z,135.50
2023-03-31T02:05:20.369Z,149.35
2023-03-31T02:07:51.385Z,177.90
2023-03-31T02:10:18.593Z,155.13
2023-03-31T02:12:45.642Z,130.90
2023-03-31T02:15:16.197Z,2.90
2023-03-31T02:17:45.844Z,2.90
2023-03-31T02:20:15.323Z,4.13
2023-03-31T02:22:45.449Z,2.97
2023-03-31T02:25:14.724Z,2.55
2023-03-31T02:27:47.740Z,2.97
2023-03-31T02:30:14.961Z,2.80
2023-03-31T02:32:44.016Z,4.13
2023-03-31T02:35:18.112Z,3.50
2023-03-31T02:37:45.419Z,3.42
2023-03-31T02:40:18.739Z,3.78
2023-03-31T02:42:45.419Z,3.72
2023-03-31T02:45:36.771Z,3.53
2023-03-31T02:48:04.503Z,3.65
2023-03-31T02:50:38.975Z,4.18
2023-03-31T02:53:35.028Z,3.85
2023-03-31T02:56:30.929Z,3.50
2023-03-31T02:59:12.238Z,4.13
2023-03-31T03:04:54.432Z,3.33
2023-03-31T03:07:48.490Z,3.22
2023-03-31T03:10:33.195Z,4.07
2023-03-31T03:13:05.541Z,3.92
2023-03-31T03:15:57.609Z,4.32
2023-03-31T03:18:24.211Z,4.43
2023-03-31T03:20:51.292Z,4.82
2023-03-31T03:23:17.945Z,4.72
2023-03-31T03:25:44.729Z,4.68
2023-03-31T03:28:11.367Z,3.97
2023-03-31T03:30:38.314Z,4.28
2023-03-31T03:33:06.889Z,4.10
2023-03-31T03:35:34.151Z,3.92
2023-03-31T03:38:00.798Z,4.13
2023-03-31T03:40:27.357Z,3.72
2023-03-31T03:42:53.923Z,3.92
2023-03-31T03:45:20.681Z,4.32
2023-03-31T03:47:47.420Z,4.43
2023-03-31T03:50:16.115Z,3.60
2023-03-31T03:52:43.365Z,4.22
2023-03-31T03:55:11.951Z,3.58
2023-03-31T03:57:39.425Z,3.35
2023-03-31T04:00:11.249Z,3.55
2023-03-31T04:02:39.752Z,4.32
2023-03-31T04:05:06.484Z,3.65
2023-03-31T04:07:33.331Z,3.83
2023-03-31T04:09:59.878Z,3.25
2023-03-31T04:12:26.372Z,3.85
2023-03-31T04:14:52.921Z,3.42
2023-03-31T04:17:20.254Z,3.20
2023-03-31T04:19:50.653Z,3.42
2023-03-31T04:22:20.763Z,3.47
2023-03-31T04:24:52.614Z,3.25
2023-03-31T04:27:20.986Z,3.08
2023-03-31T04:29:54.530Z,3.92
2023-03-31T04:32:22.017Z,3.22
2023-03-31T04:34:50.986Z,2.97
2023-03-31T04:37:17.753Z,3.10
2023-03-31T04:39:46.646Z,3.45
2023-03-31T04:42:13.394Z,2.78
2023-03-31T04:44:39.894Z,3.70
2023-03-31T04:47:07.181Z,3.70
2023-03-31T04:49:35.821Z,3.15
2023-03-31T04:52:02.283Z,3.08
2023-03-31T04:54:28.852Z,3.78
2023-03-31T04:56:55.419Z,3.13
2023-03-31T04:59:21.985Z,3.53
2023-03-31T05:01:49.042Z,3.00
2023-03-31T05:04:15.920Z,2.85
2023-03-31T05:06:42.479Z,3.25
2023-03-31T05:09:10.054Z,3.47
2023-03-31T05:11:36.714Z,3.38
2023-03-31T05:14:03.404Z,3.13
2023-03-31T05:16:30.058Z,2.50
2023-03-31T05:18:57.683Z,3.33
2023-03-31T05:21:24.379Z,3.40
2023-03-31T05:23:50.981Z,2.55
2023-03-31T05:26:17.551Z,2.30
2023-03-31T05:28:44.302Z,2.72
2023-03-31T05:31:12.776Z,2.85
2023-03-31T05:33:41.640Z,2.40
2023-03-31T05:36:10.437Z,2.33
2023-03-31T05:38:37.594Z,2.20
2023-03-31T05:41:04.376Z,2.38
2023-03-31T05:43:31.004Z,1.98
2023-03-31T05:45:57.544Z,2.20
2023-03-31T05:48:24.365Z,2.05
2023-03-31T05:50:50.971Z,2.30
2023-03-31T05:53:17.474Z,4.30
2023-03-31T05:55:43.962Z,2.22
2023-03-31T05:58:10.669Z,2.03
2023-03-31T06:00:37.862Z,1.90
2023-03-31T06:03:04.627Z,2.53
2023-03-31T06:05:32.373Z,3.20
2023-03-31T06:07:59.021Z,2.78
2023-03-31T06:10:26.088Z,3.00
2023-03-31T06:12:52.581Z,2.58
2023-03-31T06:15:19.128Z,2.72
2023-03-31T06:17:45.788Z,2.63
2023-03-31T06:20:27.139Z,3.83
2023-03-31T06:22:54.630Z,2.22
2023-03-31T06:25:21.745Z,2.55
2023-03-31T06:27:48.324Z,2.10
2023-03-31T06:30:15.092Z,1.80
2023-03-31T06:32:41.667Z,2.88
2023-03-31T06:35:08.537Z,2.10
2023-03-31T06:37:35.078Z,4.25
2023-03-31T06:40:02.839Z,2.00
2023-03-31T06:42:29.460Z,1.58
2023-03-31T06:44:56.030Z,1.85
2023-03-31T06:47:22.685Z,2.38
2023-03-31T06:49:49.613Z,2.05
2023-03-31T06:52:16.571Z,1.65
2023-03-31T06:54:43.178Z,1.67
2023-03-31T06:57:09.843Z,2.53
2023-03-31T06:59:36.721Z,1.63
2023-03-31T07:02:03.977Z,1.70
2023-03-31T07:04:30.537Z,2.15
2023-03-31T07:06:59.120Z,1.80
2023-03-31T07:09:25.878Z,1.98
2023-03-31T07:11:56.851Z,1.90
2023-03-31T07:14:24.368Z,1.80
2023-03-31T07:16:51.049Z,2.33
2023-03-31T07:19:17.937Z,2.20
2023-03-31T07:21:44.674Z,2.17
2023-03-31T07:24:11.368Z,2.08
2023-03-31T07:26:37.943Z,2.05
2023-03-31T07:29:04.513Z,2.40
2023-03-31T07:31:31.125Z,2.00
2023-03-31T07:33:57.703Z,1.90
2023-03-31T07:36:24.241Z,1.92
2023-03-31T07:38:50.985Z,2.53
2023-03-31T07:41:19.909Z,2.28
2023-03-31T07:43:47.172Z,1.85
2023-03-31T07:46:25.366Z,1.98
2023-03-31T07:48:52.909Z,1.70
2023-03-31T07:51:22.183Z,1.92
2023-03-31T07:53:53.064Z,1.58
2023-03-31T07:58:48.503Z,1.88
2023-03-31T08:01:19.571Z,1.70
2023-03-31T08:03:47.420Z,72.30
2023-03-31T08:06:24.268Z,88.10
2023-03-31T08:08:51.336Z,2.10
2023-03-31T08:11:19.430Z,3.95
2023-03-31T08:13:45.944Z,76.20
2023-03-31T08:16:12.858Z,2.22
2023-03-31T08:18:39.400Z,1.77
2023-03-31T08:21:06.154Z,65.45
2023-03-31T08:23:33.184Z,118.28
2023-03-31T08:26:19.834Z,242.80
2023-03-31T08:28:48.666Z,8.40
2023-03-31T08:31:16.519Z,139.80
2023-03-31T08:33:43.434Z,123.80
2023-03-31T08:36:11.144Z,121.63
2023-03-31T08:38:39.116Z,129.90
2023-03-31T08:41:07.925Z,145.73
2023-03-31T08:43:41.976Z,151.25
2023-03-31T08:46:11.737Z,142.82
2023-03-31T08:48:50.993Z,147.77
2023-03-31T08:51:39.460Z,166.13
2023-03-31T08:54:17.112Z,152.25
2023-03-31T08:56:48.215Z,145.15
2023-03-31T08:59:27.760Z,195.18
2023-03-31T09:02:18.835Z,147.05
2023-03-31T09:05:07.399Z,143.13
2023-03-31T09:07:44.344Z,159.15
2023-03-31T09:10:25.924Z,202.05
2023-03-31T09:15:43.416Z,175.90
2023-03-31T09:18:27.739Z,150.43
2023-03-31T09:21:02.302Z,147.15
2023-03-31T09:23:31.498Z,160.88
2023-03-31T09:25:58.611Z,147.75
2023-03-31T09:28:36.335Z,272.67
2023-03-31T09:31:13.881Z,157.95
2023-03-31T09:33:47.429Z,185.27
2023-03-31T09:36:19.494Z,162.88
2023-03-31T09:38:46.986Z,184.73
2023-03-31T09:41:15.993Z,176.55
2023-03-31T09:43:45.885Z,332.60
2023-03-31T09:46:19.513Z,209.15
2023-03-31T09:49:00.580Z,254.02
2023-03-31T09:51:30.579Z,238.20
2023-03-31T09:54:02.994Z,203.82
2023-03-31T09:56:37.626Z,221.57
2023-03-31T09:59:04.554Z,170.93
2023-03-31T10:01:31.788Z,251.73
2023-03-31T10:03:58.427Z,147.68
2023-03-31T10:06:26.149Z,149.82
2023-03-31T10:08:57.885Z,142.70
2023-03-31T10:11:24.549Z,148.45
2023-03-31T10:14:02.156Z,143.88
2023-03-31T10:16:31.795Z,218.57
2023-03-31T10:19:17.395Z,155.80
2023-03-31T10:21:46.996Z,163.30
2023-03-31T10:24:19.639Z,161.77
2023-03-31T10:26:50.542Z,191.10
2023-03-31T10:29:31.643Z,182.43
2023-03-31T10:32:09.118Z,184.95
2023-03-31T10:34:40.631Z,264.98
2023-03-31T10:37:07.602Z,192.20
2023-03-31T10:39:34.295Z,200.32
2023-03-31T10:42:01.075Z,155.45
2023-03-31T10:44:38.361Z,162.60
2023-03-31T10:47:13.697Z,135.23
2023-03-31T10:49:41.981Z,189.85
2023-03-31T10:52:15.773Z,125.07
2023-03-31T10:55:01.533Z,136.50
2023-03-31T10:57:41.205Z,169.65
2023-03-31T11:00:16.638Z,183.35
2023-03-31T11:02:58.668Z,159.27
2023-03-31T11:05:39.228Z,121.35
2023-03-31T11:08:24.475Z,126.37
2023-03-31T11:11:02.026Z,144.98
2023-03-31T11:14:00.876Z,126.97
2023-03-31T11:16:48.946Z,128.77
2023-03-31T11:19:42.419Z,129.75
2023-03-31T11:22:17.149Z,131.23
2023-03-31T11:25:17.434Z,165.80
2023-03-31T11:28:14.292Z,160.82
2023-03-31T11:30:51.278Z,144.60
2023-03-31T11:33:39.901Z,139.70
2023-03-31T11:36:16.902Z,177.18
2023-03-31T11:38:44.462Z,157.05
2023-03-31T11:41:14.561Z,151.77
2023-03-31T11:43:47.400Z,186.93
2023-03-31T11:46:27.374Z,155.98
2023-03-31T11:49:06.860Z,170.68
2023-03-31T11:51:44.409Z,268.23
2023-03-31T11:54:20.411Z,185.38
2023-03-31T11:56:47.378Z,194.73
2023-03-31T11:59:16.155Z,186.60
2023-03-31T12:02:14.971Z,186.13
2023-03-31T12:04:44.239Z,184.73
2023-03-31T12:07:23.839Z,179.38
2023-03-31T12:10:12.001Z,181.25
2023-03-31T12:12:53.070Z,154.20
2023-03-31T12:15:22.875Z,206.55
2023-03-31T12:18:12.659Z,145.48
2023-03-31T12:20:49.156Z,139.55
2023-03-31T12:23:18.920Z,132.50
2023-03-31T12:25:51.750Z,143.88
2023-03-31T12:28:19.713Z,141.43
2023-03-31T12:30:48.171Z,159.48
2023-03-31T12:33:21.757Z,149.85
2023-03-31T12:36:17.442Z,169.82
2023-03-31T12:39:03.177Z,172.80
2023-03-31T12:41:47.115Z,173.48
2023-03-31T12:44:25.779Z,194.70
2023-03-31T12:46:58.705Z,184.00
2023-03-31T12:49:40.108Z,235.77
2023-03-31T12:52:31.584Z,277.13
2023-03-31T12:55:31.924Z,209.48
2023-03-31T12:58:34.777Z,195.75
2023-03-31T13:01:19.133Z,183.35
2023-03-31T13:04:21.142Z,178.15
2023-03-31T13:06:56.146Z,174.57
2023-03-31T13:09:22.589Z,204.65
2023-03-31T13:11:49.210Z,203.15
2023-03-31T13:14:22.918Z,239.73
2023-03-31T13:17:01.888Z,235.77
2023-03-31T13:19:33.815Z,246.40
2023-03-31T13:22:02.157Z,235.63
2023-03-31T13:24:31.132Z,230.23
2023-03-31T13:27:28.346Z,232.95
2023-03-31T13:29:54.903Z,221.18
2023-03-31T13:32:25.720Z,253.63
2023-03-31T13:35:05.671Z,218.27
2023-03-31T13:37:54.101Z,217.32
2023-03-31T13:40:26.936Z,296.23
2023-03-31T13:43:17.640Z,216.45
2023-03-31T13:46:22.616Z,188.18
2023-03-31T13:49:14.011Z,183.68
2023-03-31T13:51:59.798Z,176.70
2023-03-31T13:54:44.816Z,205.68
2023-03-31T13:57:52.451Z,207.82
2023-03-31T14:00:36.219Z,266.20
2023-03-31T14:03:30.611Z,187.40
2023-03-31T14:06:04.335Z,186.43
2023-03-31T14:08:45.726Z,182.45
2023-03-31T14:14:16.018Z,180.88
2023-03-31T14:16:48.617Z,168.90
2023-03-31T14:19:34.108Z,239.68
2023-03-31T14:22:09.433Z,177.60
2023-03-31T14:24:44.997Z,164.27
2023-03-31T14:27:39.604Z,244.20
2023-03-31T14:30:19.961Z,208.60
2023-03-31T14:33:18.218Z,160.77
2023-03-31T14:36:08.046Z,153.07
2023-03-31T14:38:34.657Z,151.40
2023-03-31T14:41:01.443Z,146.40
2023-03-31T14:43:36.382Z,156.32
2023-03-31T14:46:09.072Z,138.45
2023-03-31T14:48:44.941Z,131.35
2023-03-31T14:51:14.745Z,170.95
2023-03-31T14:53:43.290Z,129.35
2023-03-31T14:56:13.043Z,141.65
2023-03-31T14:58:42.606Z,123.13
2023-03-31T15:01:09.968Z,172.13
2023-03-31T15:03:41.482Z,141.23
2023-03-31T15:06:08.316Z,130.43
2023-03-31T15:08:35.228Z,118.50
2023-03-31T15:11:13.146Z,118.80
2023-03-31T15:14:03.410Z,113.55
2023-03-31T15:16:42.745Z,112.63
2023-03-31T15:19:25.274Z,131.20
2023-03-31T15:21:56.916Z,115.80
2023-03-31T15:24:23.800Z,113.63
2023-03-31T15:26:56.448Z,138.35
2023-03-31T15:29:41.762Z,121.32
2023-03-31T15:32:14.433Z,120.95
2023-03-31T15:34:43.354Z,137.93
2023-03-31T15:37:10.469Z,117.55
2023-03-31T15:39:37.826Z,133.13
2023-03-31T15:42:06.114Z,122.55
2023-03-31T15:44:39.419Z,125.80
2023-03-31T15:47:14.070Z,127.05
2023-03-31T15:49:54.928Z,133.15
2023-03-31T15:52:48.480Z,138.43
2023-03-31T15:55:29.735Z,189.05
2023-03-31T15:57:58.233Z,130.68
2023-03-31T16:00:33.529Z,132.93
2023-03-31T16:03:01.687Z,129.82
2023-03-31T16:05:55.284Z,124.68
2023-03-31T16:08:25.372Z,133.15
2023-03-31T16:11:04.118Z,123.53
2023-03-31T16:13:31.591Z,122.85
2023-03-31T16:15:59.259Z,123.30
2023-03-31T16:18:33.922Z,125.60
2023-03-31T16:21:02.485Z,125.82
2023-03-31T16:23:31.438Z,114.50
2023-03-31T16:25:59.103Z,115.40
2023-03-31T16:28:34.900Z,138.95
2023-03-31T16:31:02.069Z,117.53
2023-03-31T16:33:32.720Z,110.80
2023-03-31T16:36:02.390Z,114.38
2023-03-31T16:38:30.462Z,112.40
2023-03-31T16:40:57.782Z,110.95
2023-03-31T16:43:27.151Z,141.60
2023-03-31T16:45:59.014Z,108.40
2023-03-31T16:48:27.336Z,139.25
2023-03-31T16:50:55.945Z,109.47
2023-03-31T16:53:24.955Z,125.47
2023-03-31T16:55:51.551Z,110.47
2023-03-31T16:58:18.727Z,225.43
2023-03-31T17:00:45.853Z,109.03
2023-03-31T17:03:13.949Z,137.10
2023-03-31T17:05:43.102Z,106.55
2023-03-31T17:08:10.772Z,126.30
2023-03-31T17:10:38.530Z,109.32
2023-03-31T17:13:06.051Z,200.43
2023-03-31T17:15:34.956Z,107.78
2023-03-31T17:18:03.320Z,118.00
2023-03-31T17:20:30.434Z,108.00
2023-03-31T17:22:56.982Z,107.55
2023-03-31T17:25:23.516Z,120.50
2023-03-31T17:27:50.014Z,104.82
2023-03-31T17:30:16.519Z,185.43
2023-03-31T17:32:43.113Z,106.82
2023-03-31T17:35:10.325Z,233.57
2023-03-31T17:37:37.401Z,107.90
2023-03-31T17:40:05.095Z,111.35
2023-03-31T17:42:31.616Z,121.85
2023-03-31T17:44:58.436Z,106.25
2023-03-31T17:47:25.102Z,119.65
2023-03-31T17:49:51.817Z,110.43
2023-03-31T17:52:18.301Z,104.13
2023-03-31T17:54:44.802Z,123.90
2023-03-31T17:57:11.382Z,104.15
2023-03-31T17:59:39.035Z,130.48
2023-03-31T18:02:05.763Z,148.45
2023-03-31T18:04:32.475Z,103.28
2023-03-31T18:06:59.121Z,126.63
2023-03-31T18:09:25.728Z,104.47
2023-03-31T18:11:53.552Z,126.85
2023-03-31T18:14:20.214Z,106.10
2023-03-31T18:16:46.829Z,119.25
2023-03-31T18:19:14.088Z,106.22
2023-03-31T18:21:40.782Z,103.97
2023-03-31T18:24:07.432Z,119.50
2023-03-31T18:26:34.130Z,104.32
2023-03-31T18:29:00.660Z,127.40
2023-03-31T18:31:27.339Z,101.53
2023-03-31T18:33:54.776Z,125.60
2023-03-31T18:36:22.675Z,104.25
2023-03-31T18:38:50.465Z,151.43
2023-03-31T18:41:20.133Z,102.00
2023-03-31T18:43:52.019Z,112.47
2023-03-31T18:46:19.526Z,102.60
2023-03-31T18:48:46.511Z,138.88
2023-03-31T18:51:14.435Z,104.35
2023-03-31T18:53:41.431Z,109.90
2023-03-31T18:56:08.143Z,117.10
2023-03-31T18:58:34.641Z,104.15
2023-03-31T19:01:01.456Z,183.13
2023-03-31T19:03:28.044Z,103.53
2023-03-31T19:06:06.051Z,133.07
2023-03-31T19:08:32.953Z,105.50
2023-03-31T19:11:10.741Z,130.55
2023-03-31T19:13:38.158Z,101.55
2023-03-31T19:16:05.394Z,167.00
2023-03-31T19:18:32.047Z,106.43
2023-03-31T19:20:59.672Z,185.48
2023-03-31T19:23:26.524Z,102.35
2023-03-31T19:25:54.486Z,135.73
2023-03-31T19:28:22.123Z,106.57
2023-03-31T19:30:49.696Z,121.60
2023-03-31T19:33:16.423Z,106.78
2023-03-31T19:35:44.669Z,141.75
2023-03-31T19:38:11.583Z,117.93
2023-03-31T19:40:38.652Z,109.88
2023-03-31T19:43:05.265Z,108.63
2023-03-31T19:45:32.046Z,118.93
2023-03-31T19:47:58.751Z,109.70
2023-03-31T19:50:25.939Z,230.18
2023-03-31T19:52:52.479Z,118.65
2023-03-31T19:55:19.239Z,159.10
2023-03-31T19:57:45.977Z,131.38
2023-03-31T20:00:13.043Z,157.63
2023-03-31T20:02:39.700Z,175.25
2023-03-31T20:05:07.051Z,145.93
2023-03-31T20:07:33.622Z,117.28
2023-03-31T20:10:01.481Z,109.55
2023-03-31T20:12:28.304Z,115.68
2023-03-31T20:14:54.889Z,116.85
2023-03-31T20:17:21.495Z,107.72
2023-03-31T20:19:48.096Z,125.18
2023-03-31T20:22:14.646Z,104.10
2023-03-31T20:24:41.618Z,190.20
2023-03-31T20:27:08.616Z,108.15
2023-03-31T20:29:35.764Z,117.78
2023-03-31T20:32:02.645Z,107.57
2023-03-31T20:34:29.223Z,110.20
2023-03-31T20:36:57.096Z,125.85
2023-03-31T20:39:23.756Z,107.70
2023-03-31T20:41:51.111Z,124.22
2023-03-31T20:44:18.694Z,103.78
2023-03-31T20:46:45.479Z,193.48
2023-03-31T20:49:12.540Z,102.65
2023-03-31T20:51:39.605Z,127.68
2023-03-31T20:54:07.137Z,105.55
2023-03-31T20:56:37.587Z,114.00
2023-03-31T20:59:05.651Z,109.65
2023-03-31T21:01:33.670Z,115.90
2023-03-31T21:04:01.744Z,105.90
2023-03-31T21:06:30.982Z,113.57
2023-03-31T21:08:57.697Z,106.57
2023-03-31T21:11:24.958Z,110.70
2023-03-31T21:13:53.152Z,107.30
2023-03-31T21:16:20.734Z,117.78
2023-03-31T21:18:48.004Z,108.55
2023-03-31T21:21:16.063Z,130.25
2023-03-31T21:23:42.881Z,111.25
2023-03-31T21:26:11.379Z,181.90
2023-03-31T21:28:38.523Z,105.68
2023-03-31T21:31:08.045Z,125.18
2023-03-31T21:33:37.862Z,106.43
2023-03-31T21:36:06.649Z,120.85
2023-03-31T21:38:33.605Z,108.03
2023-03-31T21:41:14.812Z,147.77
2023-03-31T21:43:41.770Z,127.80
2023-03-31T21:46:08.698Z,106.70
2023-03-31T21:48:35.813Z,184.13
2023-03-31T21:51:03.196Z,114.75
2023-03-31T21:53:31.041Z,125.65
2023-03-31T21:55:57.766Z,109.20
2023-03-31T21:58:28.237Z,139.88
2023-03-31T22:00:56.239Z,105.88
2023-03-31T22:03:27.599Z,115.32
2023-03-31T22:05:56.020Z,107.10
2023-03-31T22:08:22.799Z,103.88
2023-03-31T22:10:50.780Z,132.68
2023-03-31T22:13:17.787Z,111.60
2023-03-31T22:15:44.795Z,177.68
2023-03-31T22:18:11.951Z,107.20
2023-03-31T22:20:39.122Z,152.65
2023-03-31T22:23:06.275Z,111.88
2023-03-31T22:25:33.730Z,250.18
2023-03-31T22:28:05.890Z,109.70
2023-03-31T22:30:33.449Z,103.30
2023-03-31T22:33:00.073Z,109.82
2023-03-31T22:35:27.048Z,122.90
2023-03-31T22:37:53.653Z,110.65
2023-03-31T22:40:20.744Z,168.65
2023-03-31T22:42:47.553Z,119.70
2023-03-31T22:45:14.116Z,156.50
2023-03-31T22:47:42.258Z,128.35
2023-03-31T22:50:10.401Z,193.43
2023-03-31T22:52:37.549Z,105.60
2023-03-31T22:55:04.801Z,162.90
2023-03-31T22:57:32.076Z,101.20
2023-03-31T22:59:59.069Z,138.85
2023-03-31T23:02:25.844Z,106.00
2023-03-31T23:04:52.510Z,107.28
2023-03-31T23:07:21.683Z,154.88
2023-03-31T23:09:48.854Z,105.80
2023-03-31T23:12:15.915Z,119.28
2023-03-31T23:14:42.494Z,103.13
2023-03-31T23:17:09.053Z,127.57
2023-03-31T23:19:37.060Z,105.85
2023-03-31T23:22:03.721Z,152.00
2023-03-31T23:24:30.486Z,102.45
2023-03-31T23:26:57.574Z,163.65
2023-03-31T23:29:24.578Z,105.95
2023-03-31T23:31:51.492Z,106.85
2023-03-31T23:34:18.223Z,115.28
2023-03-31T23:36:44.771Z,104.55
2023-03-31T23:39:11.305Z,189.32
2023-03-31T23:41:37.923Z,106.80
2023-03-31T23:44:04.982Z,134.18
2023-03-31T23:46:33.390Z,106.72
2023-03-31T23:49:02.488Z,121.65
2023-03-31T23:51:29.152Z,105.40
2023-03-31T23:53:55.790Z,172.45
2023-03-31T23:56:22.421Z,108.20
2023-03-31T23:58:49.151Z,188.05
